الصفحة الرئيسية
METAR-TAF:

METAR-TAF

مطار :

مطار تطوان سانية الرمل

تطوان, المغرب

دائرة عرض: 35-35N, خط طول: 005-20W, ارتفاع: 10 متر

مراقبة الطقس الحالي

تاريخ ووقت الإصدار 24 دقيقة قبل الساعة 02:00UTC
ريح 3 عقدة من الغرب/الجنوب الغربي, الاتجاه يتراوح بين الجنوب/الجنوب الغربي و الغرب
درجة الحرارة 10°درجة مئوية
الرطوبة 93%
ضغط 1016 hPa

METAR: GMTN 230200Z AUTO 24003KT 200V280 10/09 Q1016

زمن: 03:24 (02:24 UTC)


TAF: مفقودة

أرصاد الطقس والتوقعات من أكثر من 4000 مطار (تقارير الطقس للمطار METAR والتنبؤ بالطقس بالمطارTAF).

المحطات المتاحة هي النقط الصفراء والحمراء على الخريطة.

حرك المؤشر فوق النقطة لمعرفة اسم المحطة.

ثم انقر لمعرفة أرصاد وتوقعات الطقس.

لتغيير الخارطة: اضغط على الأزرار الخضراء مع رمز الصليب الأسود للتكبير. على الزر الأخضر مع شرطة للتصغير، أو على الأسهم الخضراء للخرائط المجاورة.


METAR-TAF: